createdAt,value
2019-03-06T00:02:34.839Z,4.93
2019-03-06T00:05:19.868Z,5.30
2019-03-06T00:08:13.677Z,3.30
2019-03-06T00:10:58.263Z,4.83
2019-03-06T00:13:43.155Z,4.90
2019-03-06T00:16:28.444Z,6.10
2019-03-06T00:19:22.164Z,3.97
2019-03-06T00:22:07.132Z,5.63
2019-03-06T00:24:52.212Z,6.37
2019-03-06T00:27:46.187Z,5.80
2019-03-06T00:30:31.051Z,3.93
2019-03-06T00:33:24.591Z,6.03
2019-03-06T00:36:15.260Z,3.57
2019-03-06T00:39:23.654Z,5.90
2019-03-06T00:42:32.824Z,4.13
2019-03-06T00:45:28.433Z,6.33
2019-03-06T00:48:13.313Z,5.03
2019-03-06T00:50:58.043Z,5.30
2019-03-06T00:53:42.918Z,5.43
2019-03-06T00:56:27.843Z,4.27
2019-03-06T00:59:12.959Z,5.90
2019-03-06T01:02:06.592Z,6.13
2019-03-06T01:04:51.327Z,4.90
2019-03-06T01:07:35.763Z,6.17
2019-03-06T01:10:20.228Z,4.70
2019-03-06T01:13:13.568Z,5.93
2019-03-06T01:15:58.045Z,4.90
2019-03-06T01:18:42.724Z,4.67
2019-03-06T01:21:27.720Z,5.27
2019-03-06T01:24:12.455Z,5.13
2019-03-06T01:26:57.282Z,6.17
2019-03-06T01:29:42.135Z,6.30
2019-03-06T01:32:26.963Z,8.57
2019-03-06T01:35:30.403Z,6.53
2019-03-06T01:38:54.802Z,7.70
2019-03-06T01:42:01.831Z,5.83
2019-03-06T01:45:09.942Z,5.10
2019-03-06T01:47:54.814Z,5.67
2019-03-06T01:50:39.342Z,5.93
2019-03-06T01:53:32.810Z,6.50
2019-03-06T01:56:17.907Z,6.30
2019-03-06T01:59:02.985Z,6.30
2019-03-06T02:01:49.110Z,6.73
2019-03-06T02:04:34.425Z,6.30
2019-03-06T02:07:19.282Z,7.20
2019-03-06T02:10:04.715Z,7.40
2019-03-06T02:12:49.767Z,7.07
2019-03-06T02:15:44.493Z,9.33
2019-03-06T02:18:29.505Z,10.03
2019-03-06T02:21:14.682Z,11.17
2019-03-06T02:23:59.294Z,7.30
2019-03-06T02:26:43.702Z,8.97
2019-03-06T02:29:39.062Z,8.30
2019-03-06T02:32:32.599Z,10.17
2019-03-06T02:35:18.070Z,9.53
2019-03-06T02:40:36.315Z,9.20
2019-03-06T02:43:30.524Z,9.33
2019-03-06T02:46:24.549Z,8.20
2019-03-06T02:49:18.743Z,10.20
2019-03-06T02:52:13.055Z,10.47
2019-03-06T02:55:06.884Z,10.50
2019-03-06T02:57:56.559Z,12.47
2019-03-06T03:04:36.907Z,10.83
2019-03-06T03:07:21.751Z,9.17
2019-03-06T03:10:06.827Z,9.97
2019-03-06T03:12:52.280Z,9.57
2019-03-06T03:15:46.310Z,10.63
2019-03-06T03:18:40.367Z,10.17
2019-03-06T03:21:34.147Z,8.97
2019-03-06T03:24:19.250Z,10.60
2019-03-06T03:27:04.399Z,8.97
2019-03-06T03:29:58.040Z,10.20
2019-03-06T03:32:42.512Z,9.63
2019-03-06T03:35:27.350Z,11.27
2019-03-06T03:38:12.525Z,9.53
2019-03-06T03:40:57.382Z,10.03
2019-03-06T03:43:41.138Z,12.90
2019-03-06T03:46:34.811Z,10.60
2019-03-06T03:49:28.950Z,11.07
2019-03-06T03:52:22.938Z,12.33
2019-03-06T03:55:07.788Z,10.50
2019-03-06T03:57:52.586Z,10.10
2019-03-06T04:00:37.444Z,7.90
2019-03-06T04:03:31.760Z,9.13
2019-03-06T04:06:25.623Z,10.60
2019-03-06T04:09:10.842Z,9.67
2019-03-06T04:12:04.774Z,11.33
2019-03-06T04:14:58.636Z,10.17
2019-03-06T04:17:43.686Z,10.63
2019-03-06T04:20:29.795Z,11.47
2019-03-06T04:23:14.127Z,9.73
2019-03-06T04:25:59.014Z,9.80
2019-03-06T04:28:43.695Z,9.10
2019-03-06T04:31:28.492Z,9.83
2019-03-06T04:34:12.992Z,12.50
2019-03-06T04:36:57.875Z,12.70
2019-03-06T04:39:42.939Z,12.90
2019-03-06T04:42:28.127Z,9.17
2019-03-06T04:45:13.339Z,9.03
2019-03-06T04:48:07.277Z,9.10
2019-03-06T04:50:52.267Z,8.70
2019-03-06T04:53:46.224Z,9.53
2019-03-06T04:56:40.766Z,9.37
2019-03-06T04:59:35.082Z,11.13
2019-03-06T05:02:19.427Z,10.00
2019-03-06T05:05:33.843Z,8.27
2019-03-06T05:08:28.033Z,8.67
2019-03-06T05:11:21.930Z,11.27
2019-03-06T05:14:06.631Z,7.80
2019-03-06T05:17:13.203Z,8.47
2019-03-06T05:20:17.475Z,9.67
2019-03-06T05:23:02.502Z,7.87
2019-03-06T05:25:47.483Z,9.03
2019-03-06T05:28:32.471Z,8.67
2019-03-06T05:31:26.441Z,7.67
2019-03-06T05:34:11.340Z,9.43
2019-03-06T05:37:05.154Z,8.50
2019-03-06T05:39:50.922Z,7.10
2019-03-06T05:42:35.606Z,8.10
2019-03-06T05:45:20.891Z,8.83
2019-03-06T05:48:06.118Z,7.83
2019-03-06T05:50:51.307Z,10.07
2019-03-06T05:53:47.886Z,7.40
2019-03-06T05:56:32.937Z,10.17
2019-03-06T05:59:17.826Z,11.57
2019-03-06T06:02:11.850Z,8.57
2019-03-06T06:04:57.846Z,8.23
2019-03-06T06:07:43.602Z,6.73
2019-03-06T06:10:29.595Z,8.37
2019-03-06T06:13:14.410Z,8.73
2019-03-06T06:15:58.863Z,9.63
2019-03-06T06:18:43.691Z,9.17
2019-03-06T06:21:47.003Z,7.00
2019-03-06T06:24:54.106Z,10.23
2019-03-06T06:27:40.182Z,8.07
2019-03-06T06:30:25.239Z,6.57
2019-03-06T06:33:10.372Z,8.97
2019-03-06T06:35:56.070Z,6.27
2019-03-06T06:38:41.163Z,8.23
2019-03-06T06:41:25.606Z,7.90
2019-03-06T06:44:10.515Z,7.33
2019-03-06T06:46:56.071Z,8.50
2019-03-06T06:49:50.266Z,8.23
2019-03-06T06:52:44.350Z,9.27
2019-03-06T06:55:38.515Z,10.93
2019-03-06T06:58:32.694Z,12.00
2019-03-06T07:01:45.571Z,6.53
2019-03-06T07:04:35.722Z,8.83
2019-03-06T07:14:50.179Z,6.97
2019-03-06T07:17:54.834Z,8.37
2019-03-06T07:20:44.990Z,7.10
2019-03-06T07:24:06.010Z,5.33
2019-03-06T07:30:51.279Z,5.73
2019-03-06T07:34:25.646Z,5.03
2019-03-06T07:41:08.750Z,4.77
2019-03-06T07:44:12.298Z,5.00
2019-03-06T07:47:33.179Z,5.47
2019-03-06T07:50:55.179Z,6.30
2019-03-06T07:57:26.541Z,6.03
2019-03-06T08:00:39.498Z,6.03
2019-03-06T08:03:34.166Z,5.03
2019-03-06T08:06:19.484Z,5.13
2019-03-06T08:09:06.820Z,5.33
2019-03-06T08:12:16.787Z,4.77
2019-03-06T08:19:13.610Z,4.33
2019-03-06T08:22:36.631Z,5.47
2019-03-06T08:25:43.523Z,4.07
2019-03-06T08:28:47.484Z,4.77
2019-03-06T08:31:59.963Z,6.90
2019-03-06T08:35:07.786Z,5.80
2019-03-06T08:38:04.147Z,6.83
2019-03-06T08:40:49.266Z,4.27
2019-03-06T08:43:34.280Z,2.80
2019-03-06T08:46:37.560Z,4.97
2019-03-06T08:50:04.254Z,3.47
2019-03-06T08:53:32.681Z,4.20
2019-03-06T09:10:30.079Z,2.30
2019-03-06T09:13:33.429Z,3.10
2019-03-06T09:17:00.094Z,3.57
2019-03-06T09:20:09.846Z,3.47
2019-03-06T09:26:41.948Z,5.30
2019-03-06T09:29:46.415Z,5.77
2019-03-06T09:32:50.360Z,4.03
2019-03-06T09:36:32.688Z,5.03
2019-03-06T09:43:09.593Z,4.80
2019-03-06T09:46:25.870Z,4.00
2019-03-06T09:49:29.317Z,5.63
2019-03-06T09:52:50.210Z,4.83
2019-03-06T09:55:53.584Z,5.13
2019-03-06T10:02:06.874Z,4.77
2019-03-06T10:09:13.126Z,6.30
2019-03-06T10:12:52.666Z,4.33
2019-03-06T10:16:25.644Z,4.73
2019-03-06T10:22:49.295Z,3.50
2019-03-06T10:25:34.562Z,1.70
2019-03-06T10:28:27.602Z,3.17
2019-03-06T10:31:16.631Z,2.57
2019-03-06T10:34:02.440Z,4.67
2019-03-06T10:36:47.154Z,4.40
2019-03-06T10:39:32.411Z,2.83
2019-03-06T10:42:19.738Z,3.60
2019-03-06T10:45:06.111Z,5.13
2019-03-06T10:47:51.383Z,4.03
2019-03-06T10:50:36.561Z,3.10
2019-03-06T10:53:21.503Z,6.30
2019-03-06T10:56:06.610Z,4.97
2019-03-06T10:59:00.811Z,4.03
2019-03-06T11:01:54.730Z,4.47
2019-03-06T11:04:53.226Z,2.43
2019-03-06T11:07:38.212Z,3.43
2019-03-06T11:10:23.757Z,4.23
2019-03-06T11:13:09.663Z,6.40
2019-03-06T11:16:03.646Z,3.30
2019-03-06T11:18:48.483Z,3.27
2019-03-06T11:21:33.490Z,4.00
2019-03-06T11:24:27.640Z,5.07
2019-03-06T11:27:21.623Z,2.20
2019-03-06T11:30:06.887Z,4.03
2019-03-06T11:33:00.882Z,4.70
2019-03-06T11:35:54.643Z,4.67
2019-03-06T11:38:39.372Z,2.23
2019-03-06T11:41:24.167Z,3.93
2019-03-06T11:44:08.924Z,3.47
2019-03-06T11:46:54.132Z,3.57
2019-03-06T11:49:42.483Z,3.23
2019-03-06T11:52:36.043Z,4.47
2019-03-06T11:55:20.458Z,3.07
2019-03-06T11:58:05.070Z,4.27
2019-03-06T12:00:50.806Z,5.47
2019-03-06T12:03:45.005Z,3.00
2019-03-06T12:06:39.110Z,1.67
2019-03-06T12:09:33.409Z,3.50
2019-03-06T12:12:27.285Z,3.03
2019-03-06T12:15:21.357Z,4.27
2019-03-06T12:18:06.676Z,1.30
2019-03-06T12:20:52.449Z,1.77
2019-03-06T12:23:37.470Z,2.17
2019-03-06T12:26:31.165Z,2.33
2019-03-06T12:29:16.581Z,2.43
2019-03-06T12:32:10.574Z,2.93
2019-03-06T12:34:55.710Z,1.77
2019-03-06T12:37:46.726Z,1.87
2019-03-06T12:40:26.402Z,4.03
2019-03-06T12:43:11.366Z,3.80
2019-03-06T12:45:56.358Z,4.20
2019-03-06T12:48:41.375Z,1.57
2019-03-06T12:51:35.717Z,0.90
2019-03-06T12:54:29.661Z,0.60
2019-03-06T12:57:23.488Z,1.10
2019-03-06T13:00:08.089Z,1.27
2019-03-06T13:02:51.650Z,1.10
2019-03-06T13:09:11.654Z,3.90
2019-03-06T13:12:07.078Z,1.10
2019-03-06T13:15:00.884Z,1.07
2019-03-06T13:17:55.296Z,1.60
2019-03-06T13:20:49.112Z,1.37
2019-03-06T13:23:34.252Z,1.50
2019-03-06T13:26:28.237Z,2.47
2019-03-06T13:29:22.204Z,1.50
2019-03-06T13:32:11.753Z,2.33
2019-03-06T13:35:10.784Z,1.93
2019-03-06T13:38:04.740Z,2.23
2019-03-06T13:40:49.188Z,0.93
2019-03-06T13:43:34.333Z,2.87
2019-03-06T13:46:19.318Z,2.37
2019-03-06T13:49:12.084Z,1.50
2019-03-06T13:52:05.880Z,1.23
2019-03-06T13:55:00.313Z,3.53
2019-03-06T13:57:54.316Z,1.13
2019-03-06T14:00:48.464Z,1.93
2019-03-06T14:03:42.592Z,1.80
2019-03-06T14:06:42.973Z,1.77
2019-03-06T14:09:36.440Z,3.03
2019-03-06T14:12:21.748Z,3.17
2019-03-06T14:15:15.720Z,2.00
2019-03-06T14:18:00.760Z,1.17
2019-03-06T14:20:54.810Z,2.53
2019-03-06T14:23:49.620Z,2.90
2019-03-06T14:26:34.786Z,1.50
2019-03-06T14:29:20.105Z,1.17
2019-03-06T14:32:04.436Z,1.73
2019-03-06T14:34:57.493Z,5.53
2019-03-06T14:37:42.038Z,1.07
2019-03-06T14:40:27.020Z,2.00
2019-03-06T14:43:12.892Z,2.93
2019-03-06T14:46:01.228Z,1.43
2019-03-06T14:48:46.168Z,1.53
2019-03-06T14:51:31.212Z,1.93
2019-03-06T14:54:16.348Z,3.03
2019-03-06T14:57:10.400Z,2.13
2019-03-06T15:00:04.391Z,2.87
2019-03-06T15:03:00.413Z,5.60
2019-03-06T15:05:54.262Z,1.77
2019-03-06T15:08:39.438Z,4.40
2019-03-06T15:11:33.499Z,5.50
2019-03-06T15:14:35.751Z,4.40
2019-03-06T15:17:13.798Z,1.83
2019-03-06T15:19:58.242Z,2.00
2019-03-06T15:22:43.888Z,3.17
2019-03-06T15:25:37.637Z,2.67
2019-03-06T15:28:31.548Z,3.10
2019-03-06T15:31:16.856Z,2.23
2019-03-06T15:34:10.856Z,3.30
2019-03-06T15:37:04.605Z,2.80
2019-03-06T15:39:49.660Z,3.87
2019-03-06T15:42:43.502Z,4.70
2019-03-06T15:45:29.644Z,4.17
2019-03-06T15:48:14.814Z,3.13
2019-03-06T15:51:00.029Z,2.80
2019-03-06T15:53:54.079Z,4.07
2019-03-06T15:56:48.305Z,4.60
2019-03-06T15:59:42.135Z,3.10
2019-03-06T16:02:28.191Z,4.53
2019-03-06T16:05:13.722Z,3.50
2019-03-06T16:08:07.832Z,2.67
2019-03-06T16:11:01.984Z,3.93
2019-03-06T16:13:55.921Z,4.03
2019-03-06T16:16:41.340Z,3.17
2019-03-06T16:19:35.100Z,5.37
2019-03-06T16:22:29.509Z,3.50
2019-03-06T16:25:24.114Z,2.40
2019-03-06T16:28:10.188Z,4.43
2019-03-06T16:30:55.110Z,4.03
2019-03-06T16:33:40.300Z,3.47
2019-03-06T16:36:34.336Z,2.67
2019-03-06T16:39:19.433Z,7.03
2019-03-06T16:42:13.400Z,2.60
2019-03-06T16:45:07.167Z,4.80
2019-03-06T16:47:51.868Z,4.97
2019-03-06T16:50:36.895Z,4.43
2019-03-06T16:53:22.312Z,3.50
2019-03-06T16:56:15.765Z,4.20
2019-03-06T16:59:00.742Z,6.50
2019-03-06T17:01:45.732Z,3.90
2019-03-06T17:04:39.933Z,3.07
2019-03-06T17:07:33.868Z,5.03
2019-03-06T17:10:19.113Z,7.20
2019-03-06T17:13:12.420Z,3.73
2019-03-06T17:15:57.720Z,5.57
2019-03-06T17:18:51.821Z,5.77
2019-03-06T17:21:37.092Z,11.40
2019-03-06T17:24:22.389Z,5.10
2019-03-06T17:27:17.292Z,10.73
2019-03-06T17:30:11.208Z,8.67
2019-03-06T17:32:56.224Z,4.40
2019-03-06T17:35:49.760Z,8.80
2019-03-06T17:38:34.905Z,11.20
2019-03-06T17:41:19.888Z,9.10
2019-03-06T17:44:13.749Z,5.97
2019-03-06T17:46:58.841Z,5.10
2019-03-06T17:49:53.143Z,4.50
2019-03-06T17:52:39.800Z,3.40
2019-03-06T17:55:33.289Z,3.27
2019-03-06T17:58:18.024Z,1.93
2019-03-06T18:04:37.897Z,4.77
2019-03-06T18:07:31.416Z,2.40
2019-03-06T18:10:16.852Z,2.73
2019-03-06T18:13:10.946Z,4.80
2019-03-06T18:16:04.421Z,3.57
2019-03-06T18:18:51.057Z,2.33
2019-03-06T18:21:35.945Z,7.10
2019-03-06T18:24:20.805Z,4.30
2019-03-06T18:27:15.455Z,8.13
2019-03-06T18:30:00.402Z,7.43
2019-03-06T18:32:45.994Z,4.93
2019-03-06T18:35:31.293Z,6.40
2019-03-06T18:38:24.625Z,6.40
2019-03-06T18:41:09.620Z,4.50
2019-03-06T18:43:55.025Z,4.70
2019-03-06T18:46:49.136Z,6.03
2019-03-06T18:49:42.804Z,5.10
2019-03-06T18:52:37.253Z,4.73
2019-03-06T18:55:31.333Z,6.63
2019-03-06T18:58:25.010Z,4.23
2019-03-06T19:01:10.074Z,6.27
2019-03-06T19:03:55.848Z,4.40
2019-03-06T19:06:41.393Z,5.77
2019-03-06T19:09:35.300Z,4.87
2019-03-06T19:12:20.580Z,4.37
2019-03-06T19:15:14.677Z,5.00
2019-03-06T19:18:09.348Z,4.87
2019-03-06T19:20:54.753Z,5.23
2019-03-06T19:23:40.612Z,5.77
2019-03-06T19:26:25.926Z,3.83
2019-03-06T19:29:11.350Z,6.57
2019-03-06T19:32:05.073Z,4.20
2019-03-06T19:34:50.196Z,6.13
2019-03-06T19:37:44.265Z,4.50
2019-03-06T19:40:38.440Z,5.73
2019-03-06T19:43:33.192Z,4.67
2019-03-06T19:46:18.409Z,5.23
2019-03-06T19:49:06.803Z,7.23
2019-03-06T19:51:51.951Z,4.97
2019-03-06T19:54:45.626Z,4.20
2019-03-06T19:57:30.408Z,3.67
2019-03-06T20:00:24.380Z,5.80
2019-03-06T20:03:09.596Z,4.87
2019-03-06T20:06:03.753Z,5.40
2019-03-06T20:08:57.692Z,4.43
2019-03-06T20:11:51.903Z,3.77
2019-03-06T20:14:37.038Z,3.03
2019-03-06T20:17:30.799Z,3.73
2019-03-06T20:20:15.580Z,5.20
2019-03-06T20:23:09.622Z,3.73
2019-03-06T20:25:54.704Z,3.63
2019-03-06T20:28:49.192Z,4.77
2019-03-06T20:31:45.752Z,4.87
2019-03-06T20:34:31.425Z,4.63
2019-03-06T20:37:16.725Z,3.90
2019-03-06T20:40:01.949Z,4.93
2019-03-06T20:42:48.412Z,8.10
2019-03-06T20:45:42.436Z,6.00
2019-03-06T20:48:28.786Z,5.93
2019-03-06T20:51:15.157Z,5.40
2019-03-06T20:54:00.193Z,3.70
2019-03-06T20:56:54.512Z,5.60
2019-03-06T20:59:48.536Z,3.43
2019-03-06T21:02:43.217Z,5.83
2019-03-06T21:05:28.397Z,3.77
2019-03-06T21:08:22.696Z,7.83
2019-03-06T21:11:16.476Z,4.87
2019-03-06T21:14:01.826Z,4.60
2019-03-06T21:16:55.646Z,6.00
2019-03-06T21:19:41.305Z,5.53
2019-03-06T21:22:25.940Z,5.87
2019-03-06T21:25:10.381Z,4.93
2019-03-06T21:28:04.220Z,5.57
2019-03-06T21:30:58.056Z,4.53
2019-03-06T21:33:42.813Z,5.57
2019-03-06T21:36:27.492Z,4.20
2019-03-06T21:39:12.333Z,3.60
2019-03-06T21:41:57.232Z,5.73
2019-03-06T21:44:42.029Z,5.83
2019-03-06T21:47:26.477Z,9.87
2019-03-06T21:50:11.431Z,4.93
2019-03-06T21:52:56.545Z,4.77
2019-03-06T21:55:41.490Z,8.70
2019-03-06T21:58:26.212Z,6.87
2019-03-06T22:01:11.532Z,6.10
2019-03-06T22:04:05.250Z,6.53
2019-03-06T22:06:49.937Z,5.63
2019-03-06T22:09:36.181Z,4.93
2019-03-06T22:12:21.578Z,5.70
2019-03-06T22:15:15.586Z,6.77
2019-03-06T22:18:09.584Z,6.00
2019-03-06T22:21:04.005Z,4.57
2019-03-06T22:23:57.768Z,6.77
2019-03-06T22:26:51.916Z,5.87
2019-03-06T22:29:36.612Z,6.83
2019-03-06T22:32:20.997Z,4.30
2019-03-06T22:35:05.516Z,5.47
2019-03-06T22:37:50.256Z,3.83
2019-03-06T22:40:35.377Z,6.93
2019-03-06T22:43:20.194Z,5.73
2019-03-06T22:46:05.121Z,4.63
2019-03-06T22:48:49.641Z,4.20
2019-03-06T22:51:34.510Z,5.27
2019-03-06T22:54:19.872Z,6.60
2019-03-06T22:57:04.368Z,5.37
2019-03-06T22:59:49.356Z,3.03
2019-03-06T23:02:33.784Z,3.17
2019-03-06T23:05:19.449Z,5.17
2019-03-06T23:08:05.728Z,3.40
2019-03-06T23:10:59.818Z,4.17
2019-03-06T23:13:46.153Z,4.83
2019-03-06T23:16:39.937Z,4.43
2019-03-06T23:19:25.298Z,5.57
2019-03-06T23:22:39.944Z,4.67
2019-03-06T23:25:25.012Z,5.07
2019-03-06T23:28:09.942Z,3.67
2019-03-06T23:30:54.757Z,3.30
2019-03-06T23:33:39.356Z,2.83
2019-03-06T23:36:23.864Z,5.53
2019-03-06T23:39:08.924Z,3.80
2019-03-06T23:41:54.738Z,4.00
2019-03-06T23:44:48.789Z,5.83
2019-03-06T23:47:42.768Z,5.63
2019-03-06T23:50:36.667Z,7.23
2019-03-06T23:53:24.461Z,3.97
2019-03-06T23:56:09.578Z,5.90
2019-03-06T23:58:55.426Z,3.17
